createdAt,value
2018-09-15T00:01:22.633Z,669.77
2018-09-15T00:03:51.129Z,649.80
2018-09-15T00:06:19.659Z,653.33
2018-09-15T00:08:48.200Z,638.57
2018-09-15T00:11:16.698Z,605.83
2018-09-15T00:13:45.280Z,561.23
2018-09-15T00:16:13.870Z,597.70
2018-09-15T00:18:42.417Z,564.63
2018-09-15T00:21:11.020Z,568.47
2018-09-15T00:23:39.541Z,576.27
2018-09-15T00:26:08.102Z,544.60
2018-09-15T00:28:36.644Z,552.50
2018-09-15T00:31:05.174Z,546.13
2018-09-15T00:33:33.721Z,532.70
2018-09-15T00:36:02.268Z,511.93
2018-09-15T00:38:30.754Z,535.80
2018-09-15T00:40:59.308Z,539.30
2018-09-15T00:43:27.811Z,560.33
2018-09-15T00:45:56.389Z,548.50
2018-09-15T00:48:24.900Z,529.27
2018-09-15T00:50:53.443Z,529.53
2018-09-15T00:53:21.957Z,534.07
2018-09-15T00:55:50.493Z,541.57
2018-09-15T00:58:18.988Z,537.00
2018-09-15T01:00:47.513Z,495.00
2018-09-15T01:03:16.025Z,514.60
2018-09-15T01:05:44.589Z,518.17
2018-09-15T01:08:13.188Z,475.67
2018-09-15T01:10:41.740Z,421.30
2018-09-15T01:13:10.250Z,409.07
2018-09-15T01:15:38.800Z,353.07
2018-09-15T01:18:07.300Z,346.93
2018-09-15T01:20:35.845Z,321.67
2018-09-15T01:23:04.360Z,252.23
2018-09-15T01:25:32.931Z,231.03
2018-09-15T01:28:01.502Z,267.87
2018-09-15T01:30:30.030Z,213.63
2018-09-15T01:32:58.581Z,190.03
2018-09-15T01:35:27.137Z,194.20
2018-09-15T01:37:55.690Z,203.13
2018-09-15T01:40:24.232Z,266.47
2018-09-15T01:42:52.756Z,213.07
2018-09-15T01:45:21.294Z,169.77
2018-09-15T01:47:49.826Z,168.70
2018-09-15T01:50:18.373Z,144.93
2018-09-15T01:52:46.907Z,124.50
2018-09-15T01:55:15.388Z,137.47
2018-09-15T01:57:43.913Z,124.87
2018-09-15T02:00:12.449Z,142.53
2018-09-15T02:02:41.026Z,137.83
2018-09-15T02:05:09.517Z,166.30
2018-09-15T02:07:38.066Z,183.40
2018-09-15T02:10:06.650Z,158.63
2018-09-15T02:12:35.177Z,156.97
2018-09-15T02:15:03.808Z,138.70
2018-09-15T02:17:32.360Z,110.00
2018-09-15T02:20:00.917Z,96.50
2018-09-15T02:22:29.536Z,118.83
2018-09-15T02:24:58.060Z,129.50
2018-09-15T02:27:26.565Z,93.87
2018-09-15T02:29:55.101Z,87.93
2018-09-15T02:32:23.632Z,86.83
2018-09-15T02:34:52.206Z,79.43
2018-09-15T02:37:20.753Z,78.17
2018-09-15T02:39:49.250Z,78.47
2018-09-15T02:42:17.786Z,78.23
2018-09-15T02:44:46.317Z,98.40
2018-09-15T02:47:14.804Z,109.73
2018-09-15T02:49:43.324Z,141.67
2018-09-15T02:52:11.857Z,150.80
2018-09-15T02:54:40.395Z,158.57
2018-09-15T02:57:08.932Z,170.03
2018-09-15T02:59:37.429Z,185.33
2018-09-15T03:02:05.981Z,204.47
2018-09-15T03:04:34.504Z,235.37
2018-09-15T03:07:03.053Z,277.57
2018-09-15T03:09:31.599Z,306.37
2018-09-15T03:12:00.135Z,420.60
2018-09-15T03:14:28.701Z,430.87
2018-09-15T03:16:57.206Z,477.67
2018-09-15T03:19:25.793Z,461.70
2018-09-15T03:21:54.277Z,506.67
2018-09-15T03:24:22.818Z,545.50
2018-09-15T03:26:51.380Z,540.50
2018-09-15T03:29:19.920Z,560.73
2018-09-15T03:31:48.414Z,555.00
2018-09-15T03:34:17.020Z,581.73
2018-09-15T03:36:45.553Z,613.20
2018-09-15T03:39:14.132Z,621.83
2018-09-15T03:41:43.052Z,606.93
2018-09-15T03:44:11.777Z,649.10
2018-09-15T03:46:40.535Z,669.63
2018-09-15T03:49:09.067Z,640.93
2018-09-15T03:51:37.653Z,676.90
2018-09-15T03:54:06.379Z,707.93
2018-09-15T03:56:34.890Z,735.23
2018-09-15T03:59:03.442Z,774.73
2018-09-15T04:01:31.925Z,789.73
2018-09-15T04:04:00.468Z,807.87
2018-09-15T04:06:28.975Z,818.50
2018-09-15T04:08:57.550Z,753.20
2018-09-15T04:11:26.096Z,744.60
2018-09-15T04:13:54.580Z,704.73
2018-09-15T04:16:23.153Z,688.10
2018-09-15T04:18:51.651Z,638.40
2018-09-15T04:21:20.192Z,614.83
2018-09-15T04:23:48.693Z,633.30
2018-09-15T04:26:17.217Z,603.50
2018-09-15T04:28:45.741Z,540.40
2018-09-15T04:31:14.293Z,515.57
2018-09-15T04:33:42.983Z,470.07
2018-09-15T04:36:11.577Z,471.70
2018-09-15T04:38:40.230Z,460.00
2018-09-15T04:41:08.873Z,475.50
2018-09-15T04:43:37.479Z,486.13
2018-09-15T04:46:06.261Z,477.90
2018-09-15T04:48:34.838Z,484.17
2018-09-15T04:51:03.397Z,479.33
2018-09-15T04:53:31.932Z,494.40
2018-09-15T04:56:00.482Z,489.60
2018-09-15T04:58:29.012Z,497.70
2018-09-15T05:00:57.560Z,477.33
2018-09-15T05:03:26.119Z,475.03
2018-09-15T05:05:54.604Z,457.50
2018-09-15T05:08:23.147Z,466.80
2018-09-15T05:10:51.648Z,450.13
2018-09-15T05:13:20.187Z,453.47
2018-09-15T05:15:48.773Z,442.63
2018-09-15T05:18:17.313Z,441.57
2018-09-15T05:20:45.844Z,438.80
2018-09-15T05:23:14.360Z,439.10
2018-09-15T05:25:42.905Z,439.33
2018-09-15T05:28:11.397Z,421.47
2018-09-15T05:30:39.970Z,421.80
2018-09-15T05:33:08.504Z,424.80
2018-09-15T05:35:37.053Z,383.77
2018-09-15T05:38:05.658Z,396.57
2018-09-15T05:40:34.197Z,385.97
2018-09-15T05:43:02.715Z,385.13
2018-09-15T05:45:31.214Z,380.50
2018-09-15T05:47:59.736Z,391.67
2018-09-15T05:50:28.222Z,322.40
2018-09-15T05:52:56.753Z,339.43
2018-09-15T05:55:25.301Z,324.80
2018-09-15T05:57:53.833Z,362.23
2018-09-15T06:00:22.464Z,392.17
2018-09-15T06:02:50.983Z,422.53
2018-09-15T06:05:19.525Z,460.30
2018-09-15T06:07:48.101Z,500.07
2018-09-15T06:10:16.621Z,496.73
2018-09-15T06:12:45.101Z,491.83
2018-09-15T06:15:13.664Z,462.90
2018-09-15T06:17:42.193Z,452.80
2018-09-15T06:20:10.708Z,435.37
2018-09-15T06:22:39.231Z,382.90
2018-09-15T06:25:07.794Z,393.90
2018-09-15T06:27:36.305Z,371.97
2018-09-15T06:30:05.484Z,334.33
2018-09-15T06:32:34.022Z,308.53
2018-09-15T06:35:02.585Z,332.17
2018-09-15T06:37:31.071Z,364.60
2018-09-15T06:39:59.632Z,334.23
2018-09-15T06:42:28.186Z,352.23
2018-09-15T06:44:56.737Z,346.60
2018-09-15T06:47:25.476Z,368.20
2018-09-15T06:49:54.014Z,381.30
2018-09-15T06:52:22.541Z,431.13
2018-09-15T06:54:51.030Z,461.97
2018-09-15T06:57:19.589Z,456.20
2018-09-15T06:59:48.074Z,443.67
2018-09-15T07:02:16.596Z,477.77
2018-09-15T07:04:45.094Z,488.73
2018-09-15T07:07:13.632Z,478.20
2018-09-15T07:09:42.141Z,498.37
2018-09-15T07:12:10.661Z,479.17
2018-09-15T07:14:39.191Z,503.67
2018-09-15T07:17:07.734Z,502.00
2018-09-15T07:19:36.292Z,517.33
2018-09-15T07:22:04.813Z,523.50
2018-09-15T07:24:33.358Z,531.87
2018-09-15T07:27:01.891Z,535.97
2018-09-15T07:29:30.417Z,536.30
2018-09-15T07:31:59.119Z,551.37
2018-09-15T07:34:27.677Z,566.67
2018-09-15T07:36:56.276Z,564.33
2018-09-15T07:39:24.819Z,536.40
2018-09-15T07:41:53.377Z,560.47
2018-09-15T07:44:21.864Z,549.23
2018-09-15T07:46:50.429Z,574.30
2018-09-15T07:49:18.978Z,581.97
2018-09-15T07:51:47.672Z,575.07
2018-09-15T07:54:16.214Z,590.90
2018-09-15T07:56:44.868Z,587.67
2018-09-15T07:59:13.405Z,604.03
2018-09-15T08:01:41.917Z,601.57
2018-09-15T08:04:10.494Z,575.33
2018-09-15T08:06:39.005Z,587.20
2018-09-15T08:09:07.894Z,581.30
2018-09-15T08:11:36.534Z,584.17
2018-09-15T08:14:05.119Z,605.03
2018-09-15T08:16:33.686Z,575.23
2018-09-15T08:19:02.239Z,600.33
2018-09-15T08:21:30.878Z,598.33
2018-09-15T08:23:59.427Z,592.23
2018-09-15T08:26:28.000Z,537.10
2018-09-15T08:28:56.506Z,487.57
2018-09-15T08:31:25.065Z,462.43
2018-09-15T08:33:53.610Z,381.93
2018-09-15T08:36:22.203Z,347.13
2018-09-15T08:38:50.739Z,321.33
2018-09-15T08:41:19.315Z,290.80
2018-09-15T08:43:48.298Z,230.33
2018-09-15T08:46:16.866Z,140.77
2018-09-15T08:48:45.357Z,104.23
2018-09-15T08:51:13.869Z,75.67
2018-09-15T08:53:42.470Z,59.30
2018-09-15T08:56:11.049Z,56.73
2018-09-15T08:58:39.580Z,50.47
2018-09-15T09:01:08.119Z,38.67
2018-09-15T09:03:36.675Z,43.97
2018-09-15T09:06:05.242Z,45.00
2018-09-15T09:08:33.777Z,48.00
2018-09-15T09:11:02.295Z,90.27
2018-09-15T09:13:30.820Z,98.13
2018-09-15T09:15:59.340Z,141.37
2018-09-15T09:18:28.034Z,234.03
2018-09-15T09:20:56.545Z,307.47
2018-09-15T09:23:25.061Z,298.60
2018-09-15T09:25:53.577Z,288.00
2018-09-15T09:28:22.117Z,241.63
2018-09-15T09:30:50.648Z,253.77
2018-09-15T09:33:19.207Z,168.77
2018-09-15T09:35:47.717Z,269.37
2018-09-15T09:38:16.274Z,297.20
2018-09-15T09:40:44.814Z,327.60
2018-09-15T09:43:13.342Z,299.50
2018-09-15T09:45:41.877Z,303.37
2018-09-15T09:48:10.393Z,318.63
2018-09-15T09:50:38.961Z,296.70
2018-09-15T09:53:07.555Z,282.40
2018-09-15T09:55:36.069Z,313.37
2018-09-15T09:58:04.636Z,218.43
2018-09-15T10:00:38.719Z,268.67
2018-09-15T10:03:07.353Z,233.13
2018-09-15T10:05:35.887Z,259.37
2018-09-15T10:08:04.471Z,262.93
2018-09-15T10:10:32.957Z,262.57
2018-09-15T10:13:01.534Z,308.60
2018-09-15T10:15:30.199Z,313.60
2018-09-15T10:17:58.685Z,313.73
2018-09-15T10:20:27.367Z,305.53
2018-09-15T10:22:55.991Z,341.50
2018-09-15T10:25:24.696Z,358.20
2018-09-15T10:27:53.225Z,370.83
2018-09-15T10:30:21.830Z,359.07
2018-09-15T10:32:50.348Z,360.37
2018-09-15T10:35:18.979Z,327.17
2018-09-15T10:37:47.554Z,261.27
2018-09-15T10:40:16.193Z,184.03
2018-09-15T10:42:44.704Z,190.97
2018-09-15T10:45:13.272Z,151.03
2018-09-15T10:47:42.049Z,157.37
2018-09-15T10:50:10.696Z,188.23
2018-09-15T10:52:39.270Z,172.87
2018-09-15T10:55:07.811Z,176.43
2018-09-15T10:57:36.528Z,167.63
2018-09-15T11:00:06.589Z,181.53
2018-09-15T11:02:35.261Z,173.50
2018-09-15T11:05:04.222Z,169.10
2018-09-15T11:07:33.144Z,166.20
2018-09-15T11:10:01.669Z,173.90
2018-09-15T11:12:32.455Z,183.37
2018-09-15T11:15:01.245Z,289.97
2018-09-15T11:17:29.905Z,374.97
2018-09-15T11:19:59.001Z,380.40
2018-09-15T11:22:27.531Z,386.47
2018-09-15T11:24:56.089Z,398.97
2018-09-15T11:27:24.660Z,397.00
2018-09-15T11:29:53.392Z,375.40
2018-09-15T11:32:22.208Z,372.43
2018-09-15T11:34:50.924Z,420.63
2018-09-15T11:37:19.454Z,440.50
2018-09-15T11:39:48.019Z,412.67
2018-09-15T11:42:16.684Z,460.80
2018-09-15T11:44:45.358Z,429.13
2018-09-15T11:47:13.968Z,443.70
2018-09-15T11:49:42.505Z,412.63
2018-09-15T11:52:11.074Z,381.03
2018-09-15T11:54:39.641Z,386.97
2018-09-15T11:57:08.204Z,377.23
2018-09-15T11:59:36.895Z,350.60
2018-09-15T12:02:05.628Z,364.63
2018-09-15T12:04:34.166Z,374.83
2018-09-15T12:07:02.797Z,351.17
2018-09-15T12:09:31.401Z,371.43
2018-09-15T12:11:59.985Z,356.03
2018-09-15T12:14:28.564Z,346.80
2018-09-15T12:16:57.168Z,375.33
2018-09-15T12:19:26.631Z,374.90
2018-09-15T12:21:55.176Z,494.10
2018-09-15T12:24:23.751Z,423.67
2018-09-15T12:26:52.261Z,411.97
2018-09-15T12:29:20.839Z,426.30
2018-09-15T12:31:49.406Z,469.33
2018-09-15T12:34:17.952Z,450.10
2018-09-15T12:36:46.508Z,437.27
2018-09-15T12:39:15.077Z,457.17
2018-09-15T12:41:43.656Z,449.33
2018-09-15T12:44:12.226Z,453.37
2018-09-15T12:46:40.793Z,484.57
2018-09-15T12:49:09.357Z,569.77
2018-09-15T12:51:38.083Z,590.30
2018-09-15T12:54:07.246Z,538.83
2018-09-15T12:56:35.912Z,533.77
2018-09-15T12:59:04.506Z,538.00
2018-09-15T13:01:33.109Z,562.63
2018-09-15T13:04:01.840Z,504.23
2018-09-15T13:06:30.553Z,514.70
2018-09-15T13:08:59.409Z,498.00
2018-09-15T13:11:28.169Z,469.63
2018-09-15T13:13:56.711Z,496.70
2018-09-15T13:16:25.225Z,491.77
2018-09-15T13:18:53.814Z,442.17
2018-09-15T13:21:22.367Z,461.43
2018-09-15T13:23:51.027Z,477.90
2018-09-15T13:26:19.502Z,462.93
2018-09-15T13:28:48.250Z,453.53
2018-09-15T13:31:16.809Z,497.73
2018-09-15T13:33:45.373Z,518.57
2018-09-15T13:36:13.890Z,507.37
2018-09-15T13:38:42.519Z,558.93
2018-09-15T13:41:11.072Z,596.37
2018-09-15T13:43:39.698Z,571.47
2018-09-15T13:46:08.242Z,508.33
2018-09-15T13:48:36.787Z,517.60
2018-09-15T13:51:05.710Z,542.60
2018-09-15T13:53:34.342Z,508.07
2018-09-15T13:56:02.910Z,554.37
2018-09-15T13:58:31.558Z,551.83
2018-09-15T14:01:00.167Z,556.30
2018-09-15T14:03:28.781Z,538.87
2018-09-15T14:05:57.761Z,530.00
2018-09-15T14:08:26.320Z,524.10
2018-09-15T14:10:54.944Z,527.70
2018-09-15T14:13:23.476Z,514.10
2018-09-15T14:15:52.043Z,505.00
2018-09-15T14:18:20.774Z,435.83
2018-09-15T14:20:49.433Z,371.00
2018-09-15T14:23:18.081Z,336.60
2018-09-15T14:25:46.665Z,325.07
2018-09-15T14:28:15.338Z,318.93
2018-09-15T14:30:44.001Z,337.93
2018-09-15T14:33:12.825Z,379.93
2018-09-15T14:35:41.745Z,406.23
2018-09-15T14:38:10.342Z,436.67
2018-09-15T14:40:38.907Z,482.10
2018-09-15T14:43:07.520Z,347.00
2018-09-15T14:45:36.120Z,278.87
2018-09-15T14:48:04.772Z,270.43
2018-09-15T14:50:33.487Z,262.90
2018-09-15T14:53:02.387Z,268.33
2018-09-15T14:55:31.009Z,254.30
2018-09-15T14:57:59.558Z,232.00
2018-09-15T15:00:28.066Z,251.87
2018-09-15T15:03:00.423Z,264.53
2018-09-15T15:05:28.968Z,287.20
2018-09-15T15:07:57.661Z,278.80
2018-09-15T15:10:26.125Z,275.23
2018-09-15T15:12:54.697Z,282.43
2018-09-15T15:15:23.395Z,271.63
2018-09-15T15:17:51.885Z,284.93
2018-09-15T15:20:21.130Z,293.00
2018-09-15T15:22:49.686Z,303.07
2018-09-15T15:25:18.491Z,301.87
2018-09-15T15:27:47.057Z,294.87
2018-09-15T15:30:16.484Z,296.00
2018-09-15T15:32:45.038Z,286.53
2018-09-15T15:35:13.581Z,295.77
2018-09-15T15:37:42.199Z,297.97
2018-09-15T15:40:10.765Z,312.07
2018-09-15T15:42:39.270Z,327.57
2018-09-15T15:45:07.921Z,349.17
2018-09-15T15:47:36.479Z,354.37
2018-09-15T15:50:05.117Z,381.13
2018-09-15T15:52:33.721Z,379.57
2018-09-15T15:55:02.805Z,355.60
2018-09-15T15:57:38.024Z,373.47
2018-09-15T16:00:06.828Z,354.67
2018-09-15T16:02:35.640Z,344.23
2018-09-15T16:05:04.429Z,330.20
2018-09-15T16:07:33.005Z,328.87
2018-09-15T16:10:01.567Z,295.03
2018-09-15T16:12:30.124Z,288.00
2018-09-15T16:14:58.730Z,280.13
2018-09-15T16:17:27.305Z,264.23
2018-09-15T16:19:55.901Z,241.10
2018-09-15T16:22:24.405Z,201.87
2018-09-15T16:24:52.962Z,192.53
2018-09-15T16:27:21.502Z,182.57
2018-09-15T16:29:50.074Z,178.93
2018-09-15T16:32:18.650Z,185.27
2018-09-15T16:34:53.748Z,180.97
2018-09-15T16:37:22.459Z,177.03
2018-09-15T16:39:51.070Z,169.77
2018-09-15T16:42:19.668Z,170.93
2018-09-15T16:44:48.259Z,170.80
2018-09-15T16:47:16.843Z,179.00
2018-09-15T16:49:45.345Z,176.90
2018-09-15T16:52:13.933Z,199.33
2018-09-15T16:54:42.491Z,193.60
2018-09-15T16:57:11.037Z,233.90
2018-09-15T16:59:39.561Z,256.43
2018-09-15T17:02:08.149Z,269.80
2018-09-15T17:04:36.668Z,264.27
2018-09-15T17:07:05.266Z,247.17
2018-09-15T17:09:33.908Z,267.03
2018-09-15T17:12:02.497Z,265.63
2018-09-15T17:14:31.024Z,238.70
2018-09-15T17:16:59.562Z,236.93
2018-09-15T17:19:28.466Z,220.53
2018-09-15T17:21:56.998Z,209.60
2018-09-15T17:24:25.568Z,193.30
2018-09-15T17:26:54.104Z,172.40
2018-09-15T17:29:22.645Z,160.23
2018-09-15T17:31:51.241Z,146.57
2018-09-15T17:34:19.792Z,145.63
2018-09-15T17:36:48.345Z,155.07
2018-09-15T17:39:16.887Z,146.50
2018-09-15T17:41:45.497Z,156.13
2018-09-15T17:44:14.010Z,174.23
2018-09-15T17:46:42.573Z,285.83
2018-09-15T17:49:11.182Z,344.50
2018-09-15T17:51:39.708Z,421.83
2018-09-15T17:54:08.287Z,456.87
2018-09-15T17:56:36.841Z,461.63
2018-09-15T17:59:05.405Z,458.20
2018-09-15T18:01:33.997Z,435.63
2018-09-15T18:04:02.886Z,457.13
2018-09-15T18:06:31.442Z,461.83
2018-09-15T18:09:00.013Z,461.43
2018-09-15T18:11:28.578Z,440.10
2018-09-15T18:14:10.538Z,450.10
2018-09-15T18:16:48.554Z,444.93
2018-09-15T18:19:17.338Z,455.43
2018-09-15T18:21:54.346Z,448.80
2018-09-15T18:24:23.268Z,470.77
2018-09-15T18:26:51.809Z,441.60
2018-09-15T18:29:20.414Z,436.70
2018-09-15T18:31:48.937Z,480.87
2018-09-15T18:34:17.468Z,507.73
2018-09-15T18:36:46.183Z,547.33
2018-09-15T18:39:14.641Z,516.10
2018-09-15T18:41:43.169Z,542.03
2018-09-15T18:44:11.729Z,592.27
2018-09-15T18:46:40.274Z,605.90
2018-09-15T18:49:08.863Z,577.47
2018-09-15T18:51:37.445Z,621.93
2018-09-15T18:54:06.085Z,605.40
2018-09-15T18:56:34.730Z,501.67
2018-09-15T18:59:03.293Z,452.73
2018-09-15T19:01:31.857Z,404.87
2018-09-15T19:04:00.365Z,389.83
2018-09-15T19:06:28.968Z,344.13
2018-09-15T19:08:57.525Z,385.87
2018-09-15T19:11:26.036Z,439.40
2018-09-15T19:13:54.620Z,393.27
2018-09-15T19:16:23.346Z,404.97
2018-09-15T19:18:51.933Z,434.20
2018-09-15T19:21:20.731Z,382.93
2018-09-15T19:23:49.303Z,412.47
2018-09-15T19:26:17.851Z,586.37
2018-09-15T19:28:46.434Z,436.27
2018-09-15T19:31:14.983Z,384.27
2018-09-15T19:33:43.578Z,367.30
2018-09-15T19:36:12.274Z,378.73
2018-09-15T19:38:40.893Z,392.10
2018-09-15T19:41:09.632Z,401.27
2018-09-15T19:43:38.201Z,414.60
2018-09-15T19:46:07.190Z,397.30
2018-09-15T19:48:35.741Z,406.43
2018-09-15T19:51:05.180Z,403.00
2018-09-15T19:53:33.798Z,423.20
2018-09-15T19:56:02.306Z,485.27
2018-09-15T19:58:30.816Z,487.17
2018-09-15T20:00:59.456Z,498.67
2018-09-15T20:03:28.045Z,480.07
2018-09-15T20:05:56.733Z,495.40
2018-09-15T20:08:25.330Z,464.27
2018-09-15T20:10:53.892Z,481.63
2018-09-15T20:13:22.458Z,424.30
2018-09-15T20:15:49.845Z,433.60
2018-09-15T20:18:17.292Z,441.77
2018-09-15T20:20:44.754Z,463.87
2018-09-15T20:23:13.327Z,422.70
2018-09-15T20:25:41.900Z,404.60
2018-09-15T20:28:10.424Z,403.17
2018-09-15T20:30:38.992Z,455.63
2018-09-15T20:33:07.626Z,506.57
2018-09-15T20:35:36.133Z,543.43
2018-09-15T20:38:04.769Z,523.50
2018-09-15T20:40:33.315Z,545.37
2018-09-15T20:43:01.867Z,560.40
2018-09-15T20:45:30.438Z,561.40
2018-09-15T20:47:58.997Z,561.73
2018-09-15T20:50:27.521Z,591.97
2018-09-15T20:52:56.075Z,602.80
2018-09-15T20:55:24.585Z,617.30
2018-09-15T20:57:53.196Z,606.23
2018-09-15T21:00:21.757Z,613.13
2018-09-15T21:02:50.260Z,619.00
2018-09-15T21:05:18.837Z,634.73
2018-09-15T21:07:47.388Z,620.47
2018-09-15T21:10:15.972Z,600.03
2018-09-15T21:12:44.513Z,594.20
2018-09-15T21:15:13.129Z,541.43
2018-09-15T21:17:41.743Z,503.00
2018-09-15T21:20:10.324Z,489.80
2018-09-15T21:22:38.850Z,474.90
2018-09-15T21:25:07.442Z,478.97
2018-09-15T21:27:35.998Z,417.40
2018-09-15T21:30:04.741Z,407.60
2018-09-15T21:32:33.288Z,396.00
2018-09-15T21:35:01.936Z,336.20
2018-09-15T21:37:30.493Z,295.10
2018-09-15T21:39:59.026Z,250.80
2018-09-15T21:42:28.420Z,244.00
2018-09-15T21:44:56.958Z,290.33
2018-09-15T21:47:25.521Z,305.47
2018-09-15T21:49:54.065Z,330.67
2018-09-15T21:52:22.585Z,305.33
2018-09-15T21:54:51.134Z,261.13
2018-09-15T21:57:19.628Z,233.93
2018-09-15T21:59:48.195Z,205.70
2018-09-15T22:02:16.733Z,225.37
2018-09-15T22:04:45.313Z,208.80
2018-09-15T22:07:13.854Z,177.77
2018-09-15T22:09:42.383Z,156.37
2018-09-15T22:12:10.929Z,154.50
2018-09-15T22:14:39.490Z,185.97
2018-09-15T22:17:07.998Z,190.40
2018-09-15T22:19:36.553Z,202.93
2018-09-15T22:22:05.168Z,203.67
2018-09-15T22:24:33.696Z,212.57
2018-09-15T22:27:02.201Z,193.80
2018-09-15T22:29:30.786Z,227.50
2018-09-15T22:31:59.319Z,245.70
2018-09-15T22:34:27.877Z,291.57
2018-09-15T22:36:56.448Z,341.57
2018-09-15T22:39:24.971Z,370.33
2018-09-15T22:41:53.559Z,416.53
2018-09-15T22:44:22.060Z,464.33
2018-09-15T22:46:50.617Z,515.90
2018-09-15T22:49:19.129Z,595.97
2018-09-15T22:51:47.665Z,655.43
2018-09-15T22:54:16.195Z,678.37
2018-09-15T22:56:44.744Z,664.23
2018-09-15T22:59:13.262Z,664.37
2018-09-15T23:01:41.943Z,685.07
2018-09-15T23:04:12.340Z,672.17
2018-09-15T23:06:40.880Z,649.43
2018-09-15T23:09:10.585Z,635.80
2018-09-15T23:11:39.130Z,612.00
2018-09-15T23:14:07.744Z,611.23
2018-09-15T23:16:36.324Z,556.73
2018-09-15T23:19:04.931Z,530.33
2018-09-15T23:21:33.569Z,531.77
2018-09-15T23:24:02.112Z,523.77
2018-09-15T23:26:30.682Z,523.70
2018-09-15T23:28:59.195Z,499.27
2018-09-15T23:31:27.764Z,517.03
2018-09-15T23:33:56.281Z,541.43
2018-09-15T23:36:24.816Z,545.83
2018-09-15T23:38:53.396Z,549.07
2018-09-15T23:41:21.934Z,552.70
2018-09-15T23:43:50.503Z,563.67
2018-09-15T23:46:19.046Z,556.50
2018-09-15T23:48:47.624Z,566.90
2018-09-15T23:51:16.123Z,575.80
2018-09-15T23:53:44.676Z,569.33
2018-09-15T23:56:13.232Z,570.80
2018-09-15T23:58:41.792Z,586.03
